sensor_id;sensor_type;location;lat;lon;timestamp;P1;durP1;ratioP1;P2;durP2;ratioP2
79088;SDS011;68489;50.286;9.452;2024-03-02T00:01:06;23.45;;;7.88;;
79088;SDS011;68489;50.286;9.452;2024-03-02T00:03:32;27.98;;;9.43;;
79088;SDS011;68489;50.286;9.452;2024-03-02T00:05:58;24.35;;;7.47;;
79088;SDS011;68489;50.286;9.452;2024-03-02T00:08:24;22.40;;;7.32;;
79088;SDS011;68489;50.286;9.452;2024-03-02T00:10:57;25.95;;;7.45;;
79088;SDS011;68489;50.286;9.452;2024-03-02T00:13:23;20.38;;;7.75;;
79088;SDS011;68489;50.286;9.452;2024-03-02T00:15:52;23.38;;;7.60;;
79088;SDS011;68489;50.286;9.452;2024-03-02T00:18:40;22.52;;;6.78;;
79088;SDS011;68489;50.286;9.452;2024-03-02T00:21:05;32.42;;;9.13;;
79088;SDS011;68489;50.286;9.452;2024-03-02T00:23:34;25.48;;;7.63;;
79088;SDS011;68489;50.286;9.452;2024-03-02T00:26:00;26.85;;;8.10;;
79088;SDS011;68489;50.286;9.452;2024-03-02T00:30:52;23.77;;;8.38;;
79088;SDS011;68489;50.286;9.452;2024-03-02T00:33:21;21.85;;;7.75;;
79088;SDS011;68489;50.286;9.452;2024-03-02T00:35:47;22.02;;;6.40;;
79088;SDS011;68489;50.286;9.452;2024-03-02T00:38:14;25.38;;;8.55;;
79088;SDS011;68489;50.286;9.452;2024-03-02T00:40:42;23.90;;;8.35;;
79088;SDS011;68489;50.286;9.452;2024-03-02T00:43:25;24.67;;;8.85;;
79088;SDS011;68489;50.286;9.452;2024-03-02T00:46:08;19.13;;;7.18;;
79088;SDS011;68489;50.286;9.452;2024-03-02T00:48:35;24.45;;;9.05;;
79088;SDS011;68489;50.286;9.452;2024-03-02T00:51:01;23.70;;;8.15;;
79088;SDS011;68489;50.286;9.452;2024-03-02T00:53:30;25.80;;;8.68;;
79088;SDS011;68489;50.286;9.452;2024-03-02T00:55:57;26.23;;;6.82;;
79088;SDS011;68489;50.286;9.452;2024-03-02T00:58:24;29.17;;;9.63;;
79088;SDS011;68489;50.286;9.452;2024-03-02T01:00:50;27.17;;;7.60;;
79088;SDS011;68489;50.286;9.452;2024-03-02T01:03:15;21.70;;;8.03;;
79088;SDS011;68489;50.286;9.452;2024-03-02T01:05:43;21.97;;;7.47;;
79088;SDS011;68489;50.286;9.452;2024-03-02T01:08:09;21.85;;;7.13;;
79088;SDS011;68489;50.286;9.452;2024-03-02T01:10:35;22.13;;;6.85;;
79088;SDS011;68489;50.286;9.452;2024-03-02T01:13:00;22.85;;;7.40;;
79088;SDS011;68489;50.286;9.452;2024-03-02T01:15:25;22.40;;;6.85;;
79088;SDS011;68489;50.286;9.452;2024-03-02T01:17:51;25.45;;;7.85;;
79088;SDS011;68489;50.286;9.452;2024-03-02T01:20:16;25.33;;;7.72;;
79088;SDS011;68489;50.286;9.452;2024-03-02T01:22:42;21.40;;;7.40;;
79088;SDS011;68489;50.286;9.452;2024-03-02T01:25:08;23.83;;;7.47;;
79088;SDS011;68489;50.286;9.452;2024-03-02T01:27:33;21.15;;;8.35;;
79088;SDS011;68489;50.286;9.452;2024-03-02T01:29:59;22.30;;;7.20;;
79088;SDS011;68489;50.286;9.452;2024-03-02T01:32:25;25.42;;;8.48;;
79088;SDS011;68489;50.286;9.452;2024-03-02T01:34:50;26.65;;;6.97;;
79088;SDS011;68489;50.286;9.452;2024-03-02T01:37:15;23.90;;;7.97;;
79088;SDS011;68489;50.286;9.452;2024-03-02T01:39:41;27.50;;;8.00;;
79088;SDS011;68489;50.286;9.452;2024-03-02T01:42:06;25.57;;;8.07;;
79088;SDS011;68489;50.286;9.452;2024-03-02T01:44:31;16.73;;;6.97;;
79088;SDS011;68489;50.286;9.452;2024-03-02T01:46:57;23.13;;;8.00;;
79088;SDS011;68489;50.286;9.452;2024-03-02T01:49:22;22.95;;;6.93;;
79088;SDS011;68489;50.286;9.452;2024-03-02T01:51:47;25.35;;;6.80;;
79088;SDS011;68489;50.286;9.452;2024-03-02T01:54:13;19.42;;;6.72;;
79088;SDS011;68489;50.286;9.452;2024-03-02T01:56:38;18.40;;;6.50;;
79088;SDS011;68489;50.286;9.452;2024-03-02T01:59:04;18.10;;;8.02;;
79088;SDS011;68489;50.286;9.452;2024-03-02T02:01:29;18.00;;;6.13;;
79088;SDS011;68489;50.286;9.452;2024-03-02T02:03:56;20.75;;;6.38;;
79088;SDS011;68489;50.286;9.452;2024-03-02T02:06:21;20.67;;;6.57;;
79088;SDS011;68489;50.286;9.452;2024-03-02T02:08:46;18.47;;;6.70;;
79088;SDS011;68489;50.286;9.452;2024-03-02T02:11:14;17.00;;;5.13;;
79088;SDS011;68489;50.286;9.452;2024-03-02T02:13:40;20.20;;;5.72;;
79088;SDS011;68489;50.286;9.452;2024-03-02T02:16:06;18.77;;;5.15;;
79088;SDS011;68489;50.286;9.452;2024-03-02T02:18:32;16.33;;;4.70;;
79088;SDS011;68489;50.286;9.452;2024-03-02T02:20:58;18.58;;;6.38;;
79088;SDS011;68489;50.286;9.452;2024-03-02T02:23:23;17.67;;;5.37;;
79088;SDS011;68489;50.286;9.452;2024-03-02T02:25:48;17.55;;;4.38;;
79088;SDS011;68489;50.286;9.452;2024-03-02T02:28:14;19.40;;;5.07;;
79088;SDS011;68489;50.286;9.452;2024-03-02T02:30:39;16.13;;;4.60;;
79088;SDS011;68489;50.286;9.452;2024-03-02T02:33:04;17.33;;;4.87;;
79088;SDS011;68489;50.286;9.452;2024-03-02T02:35:30;15.65;;;5.25;;
79088;SDS011;68489;50.286;9.452;2024-03-02T02:37:55;20.52;;;5.53;;
79088;SDS011;68489;50.286;9.452;2024-03-02T02:40:22;17.90;;;6.05;;
79088;SDS011;68489;50.286;9.452;2024-03-02T02:42:47;16.52;;;4.68;;
79088;SDS011;68489;50.286;9.452;2024-03-02T02:45:13;17.10;;;6.18;;
79088;SDS011;68489;50.286;9.452;2024-03-02T02:47:39;18.17;;;5.70;;
79088;SDS011;68489;50.286;9.452;2024-03-02T02:50:08;21.63;;;6.30;;
79088;SDS011;68489;50.286;9.452;2024-03-02T02:52:35;16.13;;;5.20;;
79088;SDS011;68489;50.286;9.452;2024-03-02T02:55:04;22.30;;;5.82;;
79088;SDS011;68489;50.286;9.452;2024-03-02T02:57:30;14.07;;;5.10;;
79088;SDS011;68489;50.286;9.452;2024-03-02T03:00:00;20.27;;;5.45;;
79088;SDS011;68489;50.286;9.452;2024-03-02T03:02:27;22.73;;;6.78;;
79088;SDS011;68489;50.286;9.452;2024-03-02T03:04:53;24.80;;;6.65;;
79088;SDS011;68489;50.286;9.452;2024-03-02T03:07:18;28.83;;;9.00;;
79088;SDS011;68489;50.286;9.452;2024-03-02T03:09:43;25.20;;;7.43;;
79088;SDS011;68489;50.286;9.452;2024-03-02T03:12:09;29.92;;;8.15;;
79088;SDS011;68489;50.286;9.452;2024-03-02T03:14:34;27.52;;;7.65;;
79088;SDS011;68489;50.286;9.452;2024-03-02T03:16:59;25.92;;;7.47;;
79088;SDS011;68489;50.286;9.452;2024-03-02T03:19:26;28.90;;;8.75;;
79088;SDS011;68489;50.286;9.452;2024-03-02T03:21:51;26.03;;;7.83;;
79088;SDS011;68489;50.286;9.452;2024-03-02T03:24:16;28.83;;;9.93;;
79088;SDS011;68489;50.286;9.452;2024-03-02T03:26:41;30.60;;;10.70;;
79088;SDS011;68489;50.286;9.452;2024-03-02T03:29:07;35.37;;;9.90;;
79088;SDS011;68489;50.286;9.452;2024-03-02T03:31:32;36.23;;;10.17;;
79088;SDS011;68489;50.286;9.452;2024-03-02T03:33:57;33.17;;;10.27;;
79088;SDS011;68489;50.286;9.452;2024-03-02T03:36:23;31.95;;;8.70;;
79088;SDS011;68489;50.286;9.452;2024-03-02T03:38:48;29.20;;;9.40;;
79088;SDS011;68489;50.286;9.452;2024-03-02T03:41:14;34.63;;;10.43;;
79088;SDS011;68489;50.286;9.452;2024-03-02T03:43:40;30.23;;;9.48;;
79088;SDS011;68489;50.286;9.452;2024-03-02T03:46:05;28.95;;;8.80;;
79088;SDS011;68489;50.286;9.452;2024-03-02T03:48:31;35.03;;;11.57;;
79088;SDS011;68489;50.286;9.452;2024-03-02T03:50:56;35.47;;;10.93;;
79088;SDS011;68489;50.286;9.452;2024-03-02T03:53:22;34.97;;;10.35;;
79088;SDS011;68489;50.286;9.452;2024-03-02T03:55:47;37.25;;;9.85;;
79088;SDS011;68489;50.286;9.452;2024-03-02T03:58:14;32.42;;;10.27;;
79088;SDS011;68489;50.286;9.452;2024-03-02T04:00:41;38.53;;;10.27;;
79088;SDS011;68489;50.286;9.452;2024-03-02T04:03:07;37.13;;;10.40;;
79088;SDS011;68489;50.286;9.452;2024-03-02T04:05:32;37.37;;;9.37;;
79088;SDS011;68489;50.286;9.452;2024-03-02T04:07:58;32.65;;;9.43;;
79088;SDS011;68489;50.286;9.452;2024-03-02T04:10:23;34.47;;;10.45;;
79088;SDS011;68489;50.286;9.452;2024-03-02T04:12:49;37.75;;;10.07;;
79088;SDS011;68489;50.286;9.452;2024-03-02T04:15:15;37.97;;;10.98;;
79088;SDS011;68489;50.286;9.452;2024-03-02T04:17:41;35.30;;;11.07;;
79088;SDS011;68489;50.286;9.452;2024-03-02T04:20:06;36.38;;;10.05;;
79088;SDS011;68489;50.286;9.452;2024-03-02T04:22:33;31.02;;;8.95;;
79088;SDS011;68489;50.286;9.452;2024-03-02T04:24:59;40.65;;;9.90;;
79088;SDS011;68489;50.286;9.452;2024-03-02T04:27:25;31.38;;;8.30;;
79088;SDS011;68489;50.286;9.452;2024-03-02T04:29:51;30.35;;;8.52;;
79088;SDS011;68489;50.286;9.452;2024-03-02T04:32:16;34.43;;;9.67;;
79088;SDS011;68489;50.286;9.452;2024-03-02T04:34:42;31.27;;;9.48;;
79088;SDS011;68489;50.286;9.452;2024-03-02T04:37:07;35.03;;;9.95;;
79088;SDS011;68489;50.286;9.452;2024-03-02T04:39:34;30.98;;;9.23;;
79088;SDS011;68489;50.286;9.452;2024-03-02T04:42:00;34.40;;;9.60;;
79088;SDS011;68489;50.286;9.452;2024-03-02T04:44:25;30.65;;;9.05;;
79088;SDS011;68489;50.286;9.452;2024-03-02T04:46:50;28.43;;;9.20;;
79088;SDS011;68489;50.286;9.452;2024-03-02T04:49:16;31.20;;;9.53;;
79088;SDS011;68489;50.286;9.452;2024-03-02T04:51:41;26.10;;;8.53;;
79088;SDS011;68489;50.286;9.452;2024-03-02T04:54:06;25.37;;;9.67;;
79088;SDS011;68489;50.286;9.452;2024-03-02T04:56:31;27.70;;;9.07;;
79088;SDS011;68489;50.286;9.452;2024-03-02T04:58:57;27.47;;;8.73;;
79088;SDS011;68489;50.286;9.452;2024-03-02T05:01:22;32.25;;;8.93;;
79088;SDS011;68489;50.286;9.452;2024-03-02T05:03:48;32.03;;;7.82;;
79088;SDS011;68489;50.286;9.452;2024-03-02T05:06:13;32.05;;;9.02;;
79088;SDS011;68489;50.286;9.452;2024-03-02T05:08:39;29.90;;;9.23;;
79088;SDS011;68489;50.286;9.452;2024-03-02T05:11:04;41.97;;;10.05;;
79088;SDS011;68489;50.286;9.452;2024-03-02T05:13:48;30.00;;;8.70;;
79088;SDS011;68489;50.286;9.452;2024-03-02T05:16:13;35.10;;;9.97;;
79088;SDS011;68489;50.286;9.452;2024-03-02T05:18:39;34.08;;;10.45;;
79088;SDS011;68489;50.286;9.452;2024-03-02T05:21:04;34.80;;;9.60;;
79088;SDS011;68489;50.286;9.452;2024-03-02T05:23:30;32.78;;;10.38;;
79088;SDS011;68489;50.286;9.452;2024-03-02T05:25:56;35.72;;;8.27;;
79088;SDS011;68489;50.286;9.452;2024-03-02T05:28:21;30.92;;;10.32;;
79088;SDS011;68489;50.286;9.452;2024-03-02T05:30:46;36.07;;;10.63;;
79088;SDS011;68489;50.286;9.452;2024-03-02T05:33:12;36.38;;;10.13;;
79088;SDS011;68489;50.286;9.452;2024-03-02T05:35:37;42.55;;;10.57;;
79088;SDS011;68489;50.286;9.452;2024-03-02T05:38:03;42.85;;;10.52;;
79088;SDS011;68489;50.286;9.452;2024-03-02T05:40:28;42.13;;;11.32;;
79088;SDS011;68489;50.286;9.452;2024-03-02T05:42:54;40.27;;;11.03;;
79088;SDS011;68489;50.286;9.452;2024-03-02T05:45:19;36.78;;;9.98;;
79088;SDS011;68489;50.286;9.452;2024-03-02T05:47:44;44.50;;;10.57;;
79088;SDS011;68489;50.286;9.452;2024-03-02T05:50:10;36.43;;;10.40;;
79088;SDS011;68489;50.286;9.452;2024-03-02T05:52:35;40.47;;;10.83;;
79088;SDS011;68489;50.286;9.452;2024-03-02T05:55:00;32.55;;;9.27;;
79088;SDS011;68489;50.286;9.452;2024-03-02T05:57:26;36.60;;;8.88;;
79088;SDS011;68489;50.286;9.452;2024-03-02T06:00:12;37.70;;;10.32;;
79088;SDS011;68489;50.286;9.452;2024-03-02T06:02:41;33.03;;;9.10;;
79088;SDS011;68489;50.286;9.452;2024-03-02T06:05:06;39.03;;;9.10;;
79088;SDS011;68489;50.286;9.452;2024-03-02T06:07:34;36.55;;;9.57;;
79088;SDS011;68489;50.286;9.452;2024-03-02T06:10:00;36.72;;;10.57;;
79088;SDS011;68489;50.286;9.452;2024-03-02T06:12:25;33.50;;;9.80;;
79088;SDS011;68489;50.286;9.452;2024-03-02T06:14:50;39.78;;;10.30;;
79088;SDS011;68489;50.286;9.452;2024-03-02T06:17:16;33.70;;;9.20;;
79088;SDS011;68489;50.286;9.452;2024-03-02T06:19:41;32.63;;;7.87;;
79088;SDS011;68489;50.286;9.452;2024-03-02T06:22:06;32.58;;;9.45;;
79088;SDS011;68489;50.286;9.452;2024-03-02T06:24:35;34.72;;;8.45;;
79088;SDS011;68489;50.286;9.452;2024-03-02T06:27:01;32.58;;;10.32;;
79088;SDS011;68489;50.286;9.452;2024-03-02T06:29:26;34.40;;;8.90;;
79088;SDS011;68489;50.286;9.452;2024-03-02T06:31:51;34.43;;;9.43;;
79088;SDS011;68489;50.286;9.452;2024-03-02T06:34:17;33.27;;;8.53;;
79088;SDS011;68489;50.286;9.452;2024-03-02T06:36:42;34.23;;;9.37;;
79088;SDS011;68489;50.286;9.452;2024-03-02T06:39:07;31.55;;;9.32;;
79088;SDS011;68489;50.286;9.452;2024-03-02T06:41:33;39.57;;;11.40;;
79088;SDS011;68489;50.286;9.452;2024-03-02T06:43:58;31.75;;;10.10;;
79088;SDS011;68489;50.286;9.452;2024-03-02T06:46:27;33.25;;;8.80;;
79088;SDS011;68489;50.286;9.452;2024-03-02T06:48:52;36.33;;;9.77;;
79088;SDS011;68489;50.286;9.452;2024-03-02T06:51:17;27.63;;;8.07;;
79088;SDS011;68489;50.286;9.452;2024-03-02T06:53:43;33.00;;;8.93;;
79088;SDS011;68489;50.286;9.452;2024-03-02T06:56:08;32.00;;;8.83;;
79088;SDS011;68489;50.286;9.452;2024-03-02T06:58:34;25.98;;;8.30;;
79088;SDS011;68489;50.286;9.452;2024-03-02T07:00:59;29.38;;;8.50;;
79088;SDS011;68489;50.286;9.452;2024-03-02T07:03:27;28.85;;;8.50;;
79088;SDS011;68489;50.286;9.452;2024-03-02T07:05:53;24.90;;;7.90;;
79088;SDS011;68489;50.286;9.452;2024-03-02T07:08:18;28.70;;;8.40;;
79088;SDS011;68489;50.286;9.452;2024-03-02T07:10:43;28.87;;;8.30;;
79088;SDS011;68489;50.286;9.452;2024-03-02T07:13:08;22.40;;;7.53;;
79088;SDS011;68489;50.286;9.452;2024-03-02T07:15:34;24.73;;;7.22;;
79088;SDS011;68489;50.286;9.452;2024-03-02T07:18:15;20.83;;;6.93;;
79088;SDS011;68489;50.286;9.452;2024-03-02T07:20:41;24.38;;;6.75;;
79088;SDS011;68489;50.286;9.452;2024-03-02T07:23:06;23.90;;;7.57;;
79088;SDS011;68489;50.286;9.452;2024-03-02T07:25:32;20.67;;;6.47;;
79088;SDS011;68489;50.286;9.452;2024-03-02T07:27:57;18.95;;;6.95;;
79088;SDS011;68489;50.286;9.452;2024-03-02T07:30:23;18.25;;;6.72;;
79088;SDS011;68489;50.286;9.452;2024-03-02T07:32:50;20.70;;;6.40;;
79088;SDS011;68489;50.286;9.452;2024-03-02T07:35:15;21.42;;;7.38;;
79088;SDS011;68489;50.286;9.452;2024-03-02T07:37:41;20.63;;;5.87;;
79088;SDS011;68489;50.286;9.452;2024-03-02T07:40:07;20.90;;;6.63;;
79088;SDS011;68489;50.286;9.452;2024-03-02T07:42:42;23.10;;;6.80;;
79088;SDS011;68489;50.286;9.452;2024-03-02T07:45:07;22.38;;;6.25;;
79088;SDS011;68489;50.286;9.452;2024-03-02T07:47:33;18.45;;;5.88;;
79088;SDS011;68489;50.286;9.452;2024-03-02T07:49:59;16.58;;;5.25;;
79088;SDS011;68489;50.286;9.452;2024-03-02T07:52:25;21.08;;;7.00;;
79088;SDS011;68489;50.286;9.452;2024-03-02T07:54:50;18.33;;;5.73;;
79088;SDS011;68489;50.286;9.452;2024-03-02T07:57:16;21.08;;;6.28;;
79088;SDS011;68489;50.286;9.452;2024-03-02T07:59:41;20.70;;;6.57;;
79088;SDS011;68489;50.286;9.452;2024-03-02T08:02:07;21.10;;;6.70;;
79088;SDS011;68489;50.286;9.452;2024-03-02T08:04:33;20.08;;;5.78;;
79088;SDS011;68489;50.286;9.452;2024-03-02T08:06:58;20.87;;;6.93;;
79088;SDS011;68489;50.286;9.452;2024-03-02T08:09:24;20.80;;;6.82;;
79088;SDS011;68489;50.286;9.452;2024-03-02T08:11:49;17.20;;;5.93;;
79088;SDS011;68489;50.286;9.452;2024-03-02T08:14:14;21.02;;;6.25;;
79088;SDS011;68489;50.286;9.452;2024-03-02T08:16:40;17.37;;;5.60;;
79088;SDS011;68489;50.286;9.452;2024-03-02T08:19:06;20.23;;;6.55;;
79088;SDS011;68489;50.286;9.452;2024-03-02T08:21:31;18.98;;;5.85;;
79088;SDS011;68489;50.286;9.452;2024-03-02T08:24:00;19.48;;;6.72;;
79088;SDS011;68489;50.286;9.452;2024-03-02T08:26:25;18.52;;;5.40;;
79088;SDS011;68489;50.286;9.452;2024-03-02T08:28:53;16.73;;;5.70;;
79088;SDS011;68489;50.286;9.452;2024-03-02T08:31:19;20.97;;;6.17;;
79088;SDS011;68489;50.286;9.452;2024-03-02T08:33:44;18.53;;;6.60;;
79088;SDS011;68489;50.286;9.452;2024-03-02T08:36:09;18.90;;;5.70;;
79088;SDS011;68489;50.286;9.452;2024-03-02T08:38:35;17.75;;;4.80;;
79088;SDS011;68489;50.286;9.452;2024-03-02T08:41:00;18.20;;;6.00;;
79088;SDS011;68489;50.286;9.452;2024-03-02T08:43:26;18.52;;;6.65;;
79088;SDS011;68489;50.286;9.452;2024-03-02T08:45:51;16.83;;;5.75;;
79088;SDS011;68489;50.286;9.452;2024-03-02T08:48:17;17.23;;;6.20;;
79088;SDS011;68489;50.286;9.452;2024-03-02T08:50:42;17.67;;;6.20;;
79088;SDS011;68489;50.286;9.452;2024-03-02T08:53:08;21.30;;;5.90;;
79088;SDS011;68489;50.286;9.452;2024-03-02T08:55:33;17.17;;;5.10;;
79088;SDS011;68489;50.286;9.452;2024-03-02T08:57:58;16.08;;;6.65;;
79088;SDS011;68489;50.286;9.452;2024-03-02T09:00:24;18.10;;;5.93;;
79088;SDS011;68489;50.286;9.452;2024-03-02T09:02:50;16.02;;;5.45;;
79088;SDS011;68489;50.286;9.452;2024-03-02T09:05:15;16.55;;;5.75;;
79088;SDS011;68489;50.286;9.452;2024-03-02T09:07:41;17.98;;;5.80;;
79088;SDS011;68489;50.286;9.452;2024-03-02T09:10:06;16.77;;;5.50;;
79088;SDS011;68489;50.286;9.452;2024-03-02T09:12:32;16.13;;;4.85;;
79088;SDS011;68489;50.286;9.452;2024-03-02T09:14:59;16.27;;;5.15;;
79088;SDS011;68489;50.286;9.452;2024-03-02T09:17:31;17.70;;;4.82;;
79088;SDS011;68489;50.286;9.452;2024-03-02T09:19:56;15.52;;;5.15;;
79088;SDS011;68489;50.286;9.452;2024-03-02T09:22:22;16.20;;;5.45;;
79088;SDS011;68489;50.286;9.452;2024-03-02T09:24:48;14.95;;;5.03;;
79088;SDS011;68489;50.286;9.452;2024-03-02T09:27:13;17.43;;;5.37;;
79088;SDS011;68489;50.286;9.452;2024-03-02T09:29:38;19.63;;;6.73;;
79088;SDS011;68489;50.286;9.452;2024-03-02T09:32:04;12.85;;;4.03;;
79088;SDS011;68489;50.286;9.452;2024-03-02T09:34:31;13.85;;;3.67;;
79088;SDS011;68489;50.286;9.452;2024-03-02T09:36:56;13.88;;;4.65;;
79088;SDS011;68489;50.286;9.452;2024-03-02T09:39:22;14.80;;;3.65;;
79088;SDS011;68489;50.286;9.452;2024-03-02T09:41:47;13.40;;;4.32;;
79088;SDS011;68489;50.286;9.452;2024-03-02T09:44:13;12.77;;;3.70;;
79088;SDS011;68489;50.286;9.452;2024-03-02T09:46:39;11.23;;;4.05;;
79088;SDS011;68489;50.286;9.452;2024-03-02T09:49:04;10.73;;;3.38;;
79088;SDS011;68489;50.286;9.452;2024-03-02T09:51:30;9.85;;;3.22;;
79088;SDS011;68489;50.286;9.452;2024-03-02T09:53:56;11.02;;;3.22;;
79088;SDS011;68489;50.286;9.452;2024-03-02T09:56:21;10.10;;;3.53;;
79088;SDS011;68489;50.286;9.452;2024-03-02T09:58:47;11.10;;;3.03;;
79088;SDS011;68489;50.286;9.452;2024-03-02T10:01:12;11.68;;;3.15;;
79088;SDS011;68489;50.286;9.452;2024-03-02T10:03:38;11.35;;;3.58;;
79088;SDS011;68489;50.286;9.452;2024-03-02T10:09:01;11.73;;;3.47;;
79088;SDS011;68489;50.286;9.452;2024-03-02T10:11:30;10.32;;;3.60;;
79088;SDS011;68489;50.286;9.452;2024-03-02T10:14:08;10.35;;;3.70;;
79088;SDS011;68489;50.286;9.452;2024-03-02T10:16:35;9.88;;;2.92;;
79088;SDS011;68489;50.286;9.452;2024-03-02T10:19:14;11.23;;;3.28;;
79088;SDS011;68489;50.286;9.452;2024-03-02T10:21:40;12.05;;;3.38;;
79088;SDS011;68489;50.286;9.452;2024-03-02T10:24:06;10.85;;;3.33;;
79088;SDS011;68489;50.286;9.452;2024-03-02T10:26:32;11.23;;;3.85;;
79088;SDS011;68489;50.286;9.452;2024-03-02T10:28:57;11.13;;;3.22;;
79088;SDS011;68489;50.286;9.452;2024-03-02T10:31:24;9.23;;;2.90;;
79088;SDS011;68489;50.286;9.452;2024-03-02T10:33:53;9.07;;;2.47;;
79088;SDS011;68489;50.286;9.452;2024-03-02T10:36:20;9.20;;;2.45;;
79088;SDS011;68489;50.286;9.452;2024-03-02T10:38:45;8.35;;;2.00;;
79088;SDS011;68489;50.286;9.452;2024-03-02T10:41:15;10.70;;;2.70;;
79088;SDS011;68489;50.286;9.452;2024-03-02T10:43:42;8.77;;;2.65;;
79088;SDS011;68489;50.286;9.452;2024-03-02T10:46:07;9.77;;;2.55;;
79088;SDS011;68489;50.286;9.452;2024-03-02T10:48:33;9.02;;;2.40;;
79088;SDS011;68489;50.286;9.452;2024-03-02T10:51:00;9.82;;;2.90;;
79088;SDS011;68489;50.286;9.452;2024-03-02T10:53:27;10.30;;;2.90;;
79088;SDS011;68489;50.286;9.452;2024-03-02T10:55:53;8.73;;;2.50;;
79088;SDS011;68489;50.286;9.452;2024-03-02T10:58:27;6.60;;;2.22;;
79088;SDS011;68489;50.286;9.452;2024-03-02T11:00:57;7.68;;;2.03;;
79088;SDS011;68489;50.286;9.452;2024-03-02T11:03:26;7.40;;;2.13;;
79088;SDS011;68489;50.286;9.452;2024-03-02T11:05:52;9.17;;;2.97;;
79088;SDS011;68489;50.286;9.452;2024-03-02T11:08:17;8.98;;;2.10;;
79088;SDS011;68489;50.286;9.452;2024-03-02T11:13:22;8.18;;;2.17;;
79088;SDS011;68489;50.286;9.452;2024-03-02T11:15:53;7.05;;;1.80;;
79088;SDS011;68489;50.286;9.452;2024-03-02T11:18:23;7.20;;;1.90;;
79088;SDS011;68489;50.286;9.452;2024-03-02T11:20:50;7.22;;;2.08;;
79088;SDS011;68489;50.286;9.452;2024-03-02T11:23:15;8.07;;;2.58;;
79088;SDS011;68489;50.286;9.452;2024-03-02T11:25:40;9.27;;;2.30;;
79088;SDS011;68489;50.286;9.452;2024-03-02T11:28:06;7.55;;;2.00;;
79088;SDS011;68489;50.286;9.452;2024-03-02T11:33:04;8.60;;;2.03;;
79088;SDS011;68489;50.286;9.452;2024-03-02T11:35:34;8.13;;;2.45;;
79088;SDS011;68489;50.286;9.452;2024-03-02T11:38:00;6.63;;;1.40;;
79088;SDS011;68489;50.286;9.452;2024-03-02T11:40:28;6.70;;;1.60;;
79088;SDS011;68489;50.286;9.452;2024-03-02T11:42:54;6.55;;;1.42;;
79088;SDS011;68489;50.286;9.452;2024-03-02T11:45:23;6.97;;;1.77;;
79088;SDS011;68489;50.286;9.452;2024-03-02T11:47:50;7.45;;;1.95;;
79088;SDS011;68489;50.286;9.452;2024-03-02T11:50:15;8.32;;;2.05;;
79088;SDS011;68489;50.286;9.452;2024-03-02T11:52:53;9.10;;;3.10;;
79088;SDS011;68489;50.286;9.452;2024-03-02T11:55:18;8.80;;;2.10;;
79088;SDS011;68489;50.286;9.452;2024-03-02T11:57:44;9.63;;;3.15;;
79088;SDS011;68489;50.286;9.452;2024-03-02T12:00:17;7.90;;;2.15;;
79088;SDS011;68489;50.286;9.452;2024-03-02T12:02:43;11.02;;;2.88;;
79088;SDS011;68489;50.286;9.452;2024-03-02T12:07:41;7.60;;;2.20;;
79088;SDS011;68489;50.286;9.452;2024-03-02T12:10:08;6.05;;;1.25;;
79088;SDS011;68489;50.286;9.452;2024-03-02T12:12:33;7.78;;;2.05;;
79088;SDS011;68489;50.286;9.452;2024-03-02T12:14:59;10.70;;;2.67;;
79088;SDS011;68489;50.286;9.452;2024-03-02T12:17:25;6.65;;;1.75;;
79088;SDS011;68489;50.286;9.452;2024-03-02T12:19:51;6.47;;;1.60;;
79088;SDS011;68489;50.286;9.452;2024-03-02T12:22:16;6.63;;;1.50;;
79088;SDS011;68489;50.286;9.452;2024-03-02T12:24:42;7.95;;;1.73;;
79088;SDS011;68489;50.286;9.452;2024-03-02T12:27:10;10.15;;;3.42;;
79088;SDS011;68489;50.286;9.452;2024-03-02T12:29:37;6.57;;;1.58;;
79088;SDS011;68489;50.286;9.452;2024-03-02T12:32:03;6.90;;;1.75;;
79088;SDS011;68489;50.286;9.452;2024-03-02T12:34:30;9.50;;;1.92;;
79088;SDS011;68489;50.286;9.452;2024-03-02T12:36:56;6.47;;;2.30;;
79088;SDS011;68489;50.286;9.452;2024-03-02T12:39:21;5.07;;;1.38;;
79088;SDS011;68489;50.286;9.452;2024-03-02T12:41:48;5.15;;;1.13;;
79088;SDS011;68489;50.286;9.452;2024-03-02T12:44:15;6.20;;;1.45;;
79088;SDS011;68489;50.286;9.452;2024-03-02T12:46:41;6.30;;;0.80;;
79088;SDS011;68489;50.286;9.452;2024-03-02T12:49:08;7.03;;;1.50;;
79088;SDS011;68489;50.286;9.452;2024-03-02T12:51:36;4.75;;;1.05;;
79088;SDS011;68489;50.286;9.452;2024-03-02T12:54:01;5.05;;;1.23;;
79088;SDS011;68489;50.286;9.452;2024-03-02T12:56:28;4.95;;;1.20;;
79088;SDS011;68489;50.286;9.452;2024-03-02T12:58:54;5.45;;;0.68;;
79088;SDS011;68489;50.286;9.452;2024-03-02T13:01:20;5.68;;;0.80;;
79088;SDS011;68489;50.286;9.452;2024-03-02T13:03:47;6.10;;;0.88;;
79088;SDS011;68489;50.286;9.452;2024-03-02T13:06:13;5.45;;;1.08;;
79088;SDS011;68489;50.286;9.452;2024-03-02T13:08:39;3.95;;;0.77;;
79088;SDS011;68489;50.286;9.452;2024-03-02T13:11:05;3.40;;;0.50;;
79088;SDS011;68489;50.286;9.452;2024-03-02T13:13:32;4.63;;;0.52;;
79088;SDS011;68489;50.286;9.452;2024-03-02T13:15:57;3.40;;;0.45;;
79088;SDS011;68489;50.286;9.452;2024-03-02T13:18:23;3.95;;;0.70;;
79088;SDS011;68489;50.286;9.452;2024-03-02T13:20:48;3.80;;;0.40;;
79088;SDS011;68489;50.286;9.452;2024-03-02T13:23:14;7.20;;;1.53;;
79088;SDS011;68489;50.286;9.452;2024-03-02T13:25:39;3.83;;;0.57;;
79088;SDS011;68489;50.286;9.452;2024-03-02T13:28:04;3.88;;;0.52;;
79088;SDS011;68489;50.286;9.452;2024-03-02T13:30:31;5.40;;;0.80;;
79088;SDS011;68489;50.286;9.452;2024-03-02T13:32:56;9.68;;;2.80;;
79088;SDS011;68489;50.286;9.452;2024-03-02T13:35:22;5.25;;;1.10;;
79088;SDS011;68489;50.286;9.452;2024-03-02T13:37:47;4.83;;;0.70;;
79088;SDS011;68489;50.286;9.452;2024-03-02T13:40:14;4.88;;;0.60;;
79088;SDS011;68489;50.286;9.452;2024-03-02T13:42:44;3.90;;;0.65;;
79088;SDS011;68489;50.286;9.452;2024-03-02T13:45:11;5.22;;;0.90;;
79088;SDS011;68489;50.286;9.452;2024-03-02T13:47:36;4.30;;;0.75;;
79088;SDS011;68489;50.286;9.452;2024-03-02T13:50:02;4.63;;;0.40;;
79088;SDS011;68489;50.286;9.452;2024-03-02T13:52:27;4.97;;;0.80;;
79088;SDS011;68489;50.286;9.452;2024-03-02T13:54:53;4.68;;;0.85;;
79088;SDS011;68489;50.286;9.452;2024-03-02T13:57:18;5.00;;;0.70;;
79088;SDS011;68489;50.286;9.452;2024-03-02T13:59:44;4.22;;;1.23;;
79088;SDS011;68489;50.286;9.452;2024-03-02T14:02:10;4.20;;;0.60;;
79088;SDS011;68489;50.286;9.452;2024-03-02T14:04:37;4.43;;;0.80;;
79088;SDS011;68489;50.286;9.452;2024-03-02T14:07:03;3.90;;;0.45;;
79088;SDS011;68489;50.286;9.452;2024-03-02T14:09:31;3.58;;;0.40;;
79088;SDS011;68489;50.286;9.452;2024-03-02T14:11:57;3.95;;;0.52;;
79088;SDS011;68489;50.286;9.452;2024-03-02T14:14:22;4.90;;;0.52;;
79088;SDS011;68489;50.286;9.452;2024-03-02T14:16:48;5.70;;;1.02;;
79088;SDS011;68489;50.286;9.452;2024-03-02T14:19:13;3.92;;;0.63;;
79088;SDS011;68489;50.286;9.452;2024-03-02T14:21:39;5.40;;;0.90;;
79088;SDS011;68489;50.286;9.452;2024-03-02T14:24:04;3.90;;;0.52;;
79088;SDS011;68489;50.286;9.452;2024-03-02T14:26:32;4.07;;;0.68;;
79088;SDS011;68489;50.286;9.452;2024-03-02T14:28:58;4.95;;;0.95;;
79088;SDS011;68489;50.286;9.452;2024-03-02T14:31:23;3.80;;;0.63;;
79088;SDS011;68489;50.286;9.452;2024-03-02T14:33:49;4.13;;;0.60;;
79088;SDS011;68489;50.286;9.452;2024-03-02T14:36:14;4.30;;;0.50;;
79088;SDS011;68489;50.286;9.452;2024-03-02T14:38:39;4.80;;;0.63;;
79088;SDS011;68489;50.286;9.452;2024-03-02T14:41:05;4.47;;;0.57;;
79088;SDS011;68489;50.286;9.452;2024-03-02T14:43:30;4.28;;;0.90;;